Beechy, Canada
Current Conditions -  °F | °C
As of 10:00 AM on Saturday 25 Oct 2014 (Local Time) from CYYN Reporting Station
Few Clouds Few Clouds  
Wind Chill: 45°   Ceiling: Unl
Heat Index: 45°   Visibility: 9mi
Dew Point: 30°   Wind: 3mph
Humidity: 57%   Direction: 200°SSW
Pressure: 30.03"   Gusts: NA
Location:  50.88°N, 107.38°W
Report Text: CYYN 251600Z AUTO 20003KT 150V230 9SM FEW110 07/M01 A3003 RMK SLP193
Loading
Personal Weather Stations






























Interactive Weather Map
Tropical Storm Tracking
New forecast layout! Learn more

10-Day Weather Forecast

Advertisements
Track Severe Weather on mobile